sensor_id;sensor_type;location;lat;lon;timestamp;pressure;altitude;pressure_sealevel;temperature;humidity
67052;BME280;53957;47.222;18.670;2023-08-31T04:47:48;99636.69;;;15.07;100.00
67052;BME280;53957;47.222;18.670;2023-08-31T04:51:03;99639.06;;;15.09;100.00
67052;BME280;53957;47.222;18.670;2023-08-31T04:54:08;99646.12;;;15.13;100.00
67052;BME280;53957;47.222;18.670;2023-08-31T04:57:20;99648.81;;;15.13;100.00
67052;BME280;53957;47.222;18.670;2023-08-31T05:00:43;99650.84;;;15.17;100.00
67052;BME280;53957;47.222;18.670;2023-08-31T05:03:47;99660.75;;;15.25;100.00
67052;BME280;53957;47.222;18.670;2023-08-31T05:06:53;99653.47;;;15.46;100.00
67052;BME280;53957;47.222;18.670;2023-08-31T05:09:56;99661.25;;;15.39;100.00
67052;BME280;53957;47.222;18.670;2023-08-31T05:12:59;99671.94;;;15.48;100.00
67052;BME280;53957;47.222;18.670;2023-08-31T05:16:03;99683.50;;;15.49;100.00
67052;BME280;53957;47.222;18.670;2023-08-31T05:19:45;99685.19;;;15.53;100.00
67052;BME280;53957;47.222;18.670;2023-08-31T05:22:55;99691.19;;;15.71;100.00
67052;BME280;53957;47.222;18.670;2023-08-31T05:26:07;99686.88;;;15.58;100.00
67052;BME280;53957;47.222;18.670;2023-08-31T05:29:11;99696.37;;;15.76;100.00
67052;BME280;53957;47.222;18.670;2023-08-31T05:32:21;99702.31;;;16.03;100.00
67052;BME280;53957;47.222;18.670;2023-08-31T05:35:25;99696.13;;;16.24;100.00
67052;BME280;53957;47.222;18.670;2023-08-31T05:38:51;99700.06;;;16.39;100.00
67052;BME280;53957;47.222;18.670;2023-08-31T05:41:55;99704.44;;;16.44;100.00
67052;BME280;53957;47.222;18.670;2023-08-31T05:45:15;99723.19;;;16.52;100.00
67052;BME280;53957;47.222;18.670;2023-08-31T05:48:22;99718.16;;;16.63;100.00
67052;BME280;53957;47.222;18.670;2023-08-31T05:51:26;99722.41;;;16.77;100.00
67052;BME280;53957;47.222;18.670;2023-08-31T05:54:29;99714.22;;;16.61;100.00
67052;BME280;53957;47.222;18.670;2023-08-31T05:57:36;99714.22;;;16.61;100.00
67052;BME280;53957;47.222;18.670;2023-08-31T06:00:40;99720.41;;;16.73;100.00
67052;BME280;53957;47.222;18.670;2023-08-31T06:03:45;99728.38;;;16.95;100.00
67052;BME280;53957;47.222;18.670;2023-08-31T06:07:05;99726.25;;;17.13;100.00
67052;BME280;53957;47.222;18.670;2023-08-31T06:10:28;99743.72;;;17.44;100.00
67052;BME280;53957;47.222;18.670;2023-08-31T06:13:37;99748.13;;;17.36;100.00
67052;BME280;53957;47.222;18.670;2023-08-31T06:16:48;99741.59;;;17.37;100.00
67052;BME280;53957;47.222;18.670;2023-08-31T06:19:52;99741.72;;;17.28;100.00
67052;BME280;53957;47.222;18.670;2023-08-31T06:23:20;99743.41;;;17.20;100.00
67052;BME280;53957;47.222;18.670;2023-08-31T06:26:24;99754.75;;;17.38;100.00
67052;BME280;53957;47.222;18.670;2023-08-31T06:29:47;99746.66;;;17.38;100.00
67052;BME280;53957;47.222;18.670;2023-08-31T06:32:51;99757.81;;;17.65;100.00
67052;BME280;53957;47.222;18.670;2023-08-31T06:36:17;99759.09;;;17.84;100.00
67052;BME280;53957;47.222;18.670;2023-08-31T06:39:36;99755.56;;;18.08;100.00
67052;BME280;53957;47.222;18.670;2023-08-31T06:43:25;99756.22;;;18.33;100.00
67052;BME280;53957;47.222;18.670;2023-08-31T06:46:33;99765.72;;;18.43;100.00
67052;BME280;53957;47.222;18.670;2023-08-31T06:50:01;99775.50;;;18.80;100.00
67052;BME280;53957;47.222;18.670;2023-08-31T06:53:05;99785.00;;;18.74;100.00
67052;BME280;53957;47.222;18.670;2023-08-31T06:56:28;99785.00;;;18.74;100.00
67052;BME280;53957;47.222;18.670;2023-08-31T06:59:40;99794.59;;;18.87;100.00
67052;BME280;53957;47.222;18.670;2023-08-31T07:02:43;99803.13;;;18.89;100.00
67052;BME280;53957;47.222;18.670;2023-08-31T07:05:46;99806.28;;;18.91;100.00
67052;BME280;53957;47.222;18.670;2023-08-31T07:08:51;99804.69;;;19.22;100.00
67052;BME280;53957;47.222;18.670;2023-08-31T07:11:55;99810.78;;;18.87;100.00
67052;BME280;53957;47.222;18.670;2023-08-31T07:14:58;99813.16;;;18.89;100.00
67052;BME280;53957;47.222;18.670;2023-08-31T07:18:21;99808.38;;;19.14;100.00
67052;BME280;53957;47.222;18.670;2023-08-31T07:21:26;99809.06;;;18.95;100.00
67052;BME280;53957;47.222;18.670;2023-08-31T07:24:29;99815.94;;;19.24;100.00
67052;BME280;53957;47.222;18.670;2023-08-31T07:27:54;99812.63;;;19.31;100.00
67052;BME280;53957;47.222;18.670;2023-08-31T07:31:05;99810.34;;;19.69;100.00
67052;BME280;53957;47.222;18.670;2023-08-31T07:34:11;99817.13;;;19.78;100.00
67052;BME280;53957;47.222;18.670;2023-08-31T07:37:14;99815.84;;;19.72;100.00
67052;BME280;53957;47.222;18.670;2023-08-31T07:40:17;99821.22;;;19.88;100.00
67052;BME280;53957;47.222;18.670;2023-08-31T07:43:41;99818.59;;;19.56;100.00
67052;BME280;53957;47.222;18.670;2023-08-31T07:47:01;99831.22;;;19.68;100.00
67052;BME280;53957;47.222;18.670;2023-08-31T07:50:06;99830.72;;;19.98;100.00
67052;BME280;53957;47.222;18.670;2023-08-31T07:53:11;99833.06;;;20.19;100.00
67052;BME280;53957;47.222;18.670;2023-08-31T07:56:14;99841.78;;;20.32;100.00
67052;BME280;53957;47.222;18.670;2023-08-31T07:59:18;99844.16;;;20.53;100.00
67052;BME280;53957;47.222;18.670;2023-08-31T08:02:21;99837.25;;;20.79;99.33
67052;BME280;53957;47.222;18.670;2023-08-31T08:05:25;99843.78;;;20.98;100.00
67052;BME280;53957;47.222;18.670;2023-08-31T08:08:28;99844.44;;;20.91;99.15
67052;BME280;53957;47.222;18.670;2023-08-31T08:11:34;99851.28;;;20.85;100.00
67052;BME280;53957;47.222;18.670;2023-08-31T08:14:37;99855.06;;;21.27;100.00
67052;BME280;53957;47.222;18.670;2023-08-31T08:17:40;99853.66;;;21.60;97.84
67052;BME280;53957;47.222;18.670;2023-08-31T08:20:43;99853.53;;;22.13;90.34
67052;BME280;53957;47.222;18.670;2023-08-31T08:23:49;99858.09;;;22.36;95.75
67052;BME280;53957;47.222;18.670;2023-08-31T08:26:53;99856.06;;;21.99;87.90
67052;BME280;53957;47.222;18.670;2023-08-31T08:29:56;99862.84;;;22.12;94.69
67052;BME280;53957;47.222;18.670;2023-08-31T08:32:59;99857.06;;;22.14;92.37
67052;BME280;53957;47.222;18.670;2023-08-31T08:36:03;99863.59;;;22.43;91.02
67052;BME280;53957;47.222;18.670;2023-08-31T08:39:09;99867.34;;;22.31;96.99
67052;BME280;53957;47.222;18.670;2023-08-31T08:42:12;99874.13;;;22.86;88.58
67052;BME280;53957;47.222;18.670;2023-08-31T08:45:19;99871.00;;;23.29;82.92
67052;BME280;53957;47.222;18.670;2023-08-31T08:48:24;99871.44;;;23.35;89.04
67052;BME280;53957;47.222;18.670;2023-08-31T08:51:27;99877.19;;;22.81;83.21
67052;BME280;53957;47.222;18.670;2023-08-31T08:54:34;99884.84;;;22.34;89.72
67052;BME280;53957;47.222;18.670;2023-08-31T08:57:48;99889.13;;;22.04;85.33
67052;BME280;53957;47.222;18.670;2023-08-31T09:00:54;99890.97;;;21.97;84.90
67052;BME280;53957;47.222;18.670;2023-08-31T09:04:18;99897.31;;;21.78;89.09
67052;BME280;53957;47.222;18.670;2023-08-31T09:07:29;99896.03;;;21.98;86.65
67052;BME280;53957;47.222;18.670;2023-08-31T09:10:44;99902.84;;;22.15;86.30
67052;BME280;53957;47.222;18.670;2023-08-31T09:13:50;99901.81;;;22.27;83.44
67052;BME280;53957;47.222;18.670;2023-08-31T09:16:56;99904.66;;;22.04;88.87
67052;BME280;53957;47.222;18.670;2023-08-31T09:20:01;99903.69;;;21.89;92.37
67052;BME280;53957;47.222;18.670;2023-08-31T09:23:09;99899.63;;;22.06;96.36
67052;BME280;53957;47.222;18.670;2023-08-31T09:26:17;99905.91;;;22.10;92.97
67052;BME280;53957;47.222;18.670;2023-08-31T09:29:20;99907.75;;;22.67;89.68
67052;BME280;53957;47.222;18.670;2023-08-31T09:32:24;99912.72;;;22.61;86.51
67052;BME280;53957;47.222;18.670;2023-08-31T09:35:27;99906.50;;;22.61;79.29
67052;BME280;53957;47.222;18.670;2023-08-31T09:38:31;99907.50;;;22.45;76.47
67052;BME280;53957;47.222;18.670;2023-08-31T09:41:35;99909.31;;;22.72;72.30
67052;BME280;53957;47.222;18.670;2023-08-31T09:44:44;99910.50;;;22.71;75.82
67052;BME280;53957;47.222;18.670;2023-08-31T09:47:48;99918.53;;;23.01;77.01
67052;BME280;53957;47.222;18.670;2023-08-31T09:50:54;99921.38;;;22.74;83.26
67052;BME280;53957;47.222;18.670;2023-08-31T09:54:00;99913.34;;;23.23;73.58
67052;BME280;53957;47.222;18.670;2023-08-31T09:57:07;99918.97;;;23.52;75.45
67052;BME280;53957;47.222;18.670;2023-08-31T10:00:10;99914.34;;;23.11;72.56
67052;BME280;53957;47.222;18.670;2023-08-31T10:03:14;99909.13;;;22.91;75.91
67052;BME280;53957;47.222;18.670;2023-08-31T10:06:22;99919.03;;;22.73;79.38
67052;BME280;53957;47.222;18.670;2023-08-31T10:09:36;99919.91;;;22.80;70.20
67052;BME280;53957;47.222;18.670;2023-08-31T10:12:41;99928.47;;;22.45;72.96
67052;BME280;53957;47.222;18.670;2023-08-31T10:16:08;99933.53;;;22.19;71.43
67052;BME280;53957;47.222;18.670;2023-08-31T10:19:11;99934.78;;;22.26;73.83
67052;BME280;53957;47.222;18.670;2023-08-31T10:22:34;99931.16;;;22.14;80.01
67052;BME280;53957;47.222;18.670;2023-08-31T10:29:26;99934.50;;;22.34;82.50
67052;BME280;53957;47.222;18.670;2023-08-31T10:36:20;99944.62;;;22.68;73.83
67052;BME280;53957;47.222;18.670;2023-08-31T10:39:23;99942.78;;;22.15;81.50
67052;BME280;53957;47.222;18.670;2023-08-31T10:42:27;99945.69;;;21.99;94.96
67052;BME280;53957;47.222;18.670;2023-08-31T10:45:43;99952.91;;;21.61;94.01
67052;BME280;53957;47.222;18.670;2023-08-31T10:52:17;99964.75;;;22.02;90.44
67052;BME280;53957;47.222;18.670;2023-08-31T10:55:51;99956.31;;;22.11;88.52
67052;BME280;53957;47.222;18.670;2023-08-31T10:59:00;99957.72;;;22.59;85.02
67052;BME280;53957;47.222;18.670;2023-08-31T11:02:04;99957.72;;;22.93;77.71
67052;BME280;53957;47.222;18.670;2023-08-31T11:05:15;99966.91;;;23.63;74.04
67052;BME280;53957;47.222;18.670;2023-08-31T11:08:23;99962.03;;;23.91;69.21
67052;BME280;53957;47.222;18.670;2023-08-31T11:11:27;99963.09;;;24.46;61.72
67052;BME280;53957;47.222;18.670;2023-08-31T11:14:31;99970.91;;;24.43;68.94
67052;BME280;53957;47.222;18.670;2023-08-31T11:17:34;99973.03;;;24.02;65.61
67052;BME280;53957;47.222;18.670;2023-08-31T11:20:38;99973.09;;;24.20;70.06
67052;BME280;53957;47.222;18.670;2023-08-31T11:23:49;99957.44;;;25.01;66.47
67052;BME280;53957;47.222;18.670;2023-08-31T11:26:56;99971.63;;;24.33;67.99
67052;BME280;53957;47.222;18.670;2023-08-31T11:29:59;99970.44;;;24.31;69.07
67052;BME280;53957;47.222;18.670;2023-08-31T11:33:07;99974.66;;;24.21;65.55
67052;BME280;53957;47.222;18.670;2023-08-31T11:36:11;99972.38;;;24.26;75.02
67052;BME280;53957;47.222;18.670;2023-08-31T11:39:20;99973.28;;;24.63;67.23
67052;BME280;53957;47.222;18.670;2023-08-31T11:42:23;99974.16;;;24.74;67.88
67052;BME280;53957;47.222;18.670;2023-08-31T11:45:31;99965.84;;;24.53;65.69
67052;BME280;53957;47.222;18.670;2023-08-31T11:48:35;99960.34;;;24.38;67.54
67052;BME280;53957;47.222;18.670;2023-08-31T11:51:40;99960.72;;;24.33;65.20
67052;BME280;53957;47.222;18.670;2023-08-31T11:54:43;99955.69;;;24.42;60.13
67052;BME280;53957;47.222;18.670;2023-08-31T11:57:52;99958.56;;;24.75;68.88
67052;BME280;53957;47.222;18.670;2023-08-31T12:00:59;99957.34;;;24.65;63.76
67052;BME280;53957;47.222;18.670;2023-08-31T12:04:43;99956.59;;;24.75;62.32
67052;BME280;53957;47.222;18.670;2023-08-31T12:07:48;99957.44;;;24.90;55.54
67052;BME280;53957;47.222;18.670;2023-08-31T12:11:14;99955.47;;;24.87;59.51
67052;BME280;53957;47.222;18.670;2023-08-31T12:14:25;99957.63;;;24.42;65.47
67052;BME280;53957;47.222;18.670;2023-08-31T12:17:38;99956.84;;;24.38;62.86
67052;BME280;53957;47.222;18.670;2023-08-31T12:20:55;99959.25;;;24.57;65.25
67052;BME280;53957;47.222;18.670;2023-08-31T12:24:01;99953.38;;;24.52;64.10
67052;BME280;53957;47.222;18.670;2023-08-31T12:27:10;99955.91;;;25.29;62.89
67052;BME280;53957;47.222;18.670;2023-08-31T12:30:30;99953.16;;;25.22;58.56
67052;BME280;53957;47.222;18.670;2023-08-31T12:33:34;99952.69;;;24.69;56.50
67052;BME280;53957;47.222;18.670;2023-08-31T12:36:38;99957.06;;;25.10;58.82
67052;BME280;53957;47.222;18.670;2023-08-31T12:39:43;99947.75;;;25.47;49.79
67052;BME280;53957;47.222;18.670;2023-08-31T12:42:48;99954.75;;;25.52;51.24
67052;BME280;53957;47.222;18.670;2023-08-31T12:45:52;99958.62;;;25.29;55.69
67052;BME280;53957;47.222;18.670;2023-08-31T12:48:55;99953.94;;;25.01;58.08
67052;BME280;53957;47.222;18.670;2023-08-31T12:51:58;99961.34;;;25.07;58.80
67052;BME280;53957;47.222;18.670;2023-08-31T12:55:01;99964.63;;;24.39;63.78
67052;BME280;53957;47.222;18.670;2023-08-31T12:58:04;99964.91;;;24.16;56.94
67052;BME280;53957;47.222;18.670;2023-08-31T13:01:07;99963.91;;;24.57;58.37
67052;BME280;53957;47.222;18.670;2023-08-31T13:04:10;99962.28;;;24.34;59.05
67052;BME280;53957;47.222;18.670;2023-08-31T13:07:16;99952.31;;;24.67;57.78
67052;BME280;53957;47.222;18.670;2023-08-31T13:10:19;99965.88;;;24.60;62.69
67052;BME280;53957;47.222;18.670;2023-08-31T13:13:23;99948.37;;;24.61;57.29
67052;BME280;53957;47.222;18.670;2023-08-31T13:16:25;99953.50;;;23.92;62.42
67052;BME280;53957;47.222;18.670;2023-08-31T13:19:29;99956.59;;;23.91;64.96
67052;BME280;53957;47.222;18.670;2023-08-31T13:22:32;99947.34;;;24.06;63.80
67052;BME280;53957;47.222;18.670;2023-08-31T13:25:37;99953.78;;;24.54;52.52
67052;BME280;53957;47.222;18.670;2023-08-31T13:28:39;99952.31;;;24.67;56.64
67052;BME280;53957;47.222;18.670;2023-08-31T13:31:48;99950.78;;;24.81;57.34
67052;BME280;53957;47.222;18.670;2023-08-31T13:34:51;99943.00;;;24.90;59.92
67052;BME280;53957;47.222;18.670;2023-08-31T13:37:56;99950.06;;;25.13;58.54
67052;BME280;53957;47.222;18.670;2023-08-31T13:40:59;99941.44;;;24.89;60.13
67052;BME280;53957;47.222;18.670;2023-08-31T13:44:02;99955.87;;;24.93;56.95
67052;BME280;53957;47.222;18.670;2023-08-31T13:47:05;99953.16;;;25.07;54.36
67052;BME280;53957;47.222;18.670;2023-08-31T13:50:29;99948.50;;;25.12;57.40
67052;BME280;53957;47.222;18.670;2023-08-31T13:53:41;99959.34;;;24.72;53.62
67052;BME280;53957;47.222;18.670;2023-08-31T13:56:45;99959.28;;;24.65;55.45
67052;BME280;53957;47.222;18.670;2023-08-31T13:59:48;99950.78;;;24.77;50.82
67052;BME280;53957;47.222;18.670;2023-08-31T14:02:51;99967.12;;;24.73;53.68
67052;BME280;53957;47.222;18.670;2023-08-31T14:05:54;99969.34;;;23.76;58.82
67052;BME280;53957;47.222;18.670;2023-08-31T14:08:57;99969.84;;;23.40;63.01
67052;BME280;53957;47.222;18.670;2023-08-31T14:12:02;99968.19;;;23.80;61.88
67052;BME280;53957;47.222;18.670;2023-08-31T14:15:06;99971.84;;;23.99;62.83
67052;BME280;53957;47.222;18.670;2023-08-31T14:18:10;99965.84;;;23.79;65.92
67052;BME280;53957;47.222;18.670;2023-08-31T14:21:15;99961.84;;;23.62;68.45
67052;BME280;53957;47.222;18.670;2023-08-31T14:24:19;99960.78;;;23.77;63.20
67052;BME280;53957;47.222;18.670;2023-08-31T14:27:22;99956.75;;;24.12;60.95
67052;BME280;53957;47.222;18.670;2023-08-31T14:30:26;99977.00;;;24.22;60.90
67052;BME280;53957;47.222;18.670;2023-08-31T14:33:29;99985.19;;;24.26;56.88
67052;BME280;53957;47.222;18.670;2023-08-31T14:36:32;99976.16;;;24.07;54.62
67052;BME280;53957;47.222;18.670;2023-08-31T14:39:35;99972.53;;;23.37;61.75
67052;BME280;53957;47.222;18.670;2023-08-31T14:42:39;99976.09;;;23.44;59.13
67052;BME280;53957;47.222;18.670;2023-08-31T14:45:42;99977.97;;;23.37;57.82
67052;BME280;53957;47.222;18.670;2023-08-31T14:48:47;99976.75;;;23.30;61.36
67052;BME280;53957;47.222;18.670;2023-08-31T14:51:50;99969.06;;;23.02;57.63
67052;BME280;53957;47.222;18.670;2023-08-31T14:54:54;99980.38;;;23.04;63.78
67052;BME280;53957;47.222;18.670;2023-08-31T14:57:58;99992.47;;;23.10;63.16
67052;BME280;53957;47.222;18.670;2023-08-31T15:01:02;99982.84;;;22.82;63.66
67052;BME280;53957;47.222;18.670;2023-08-31T15:04:05;99985.22;;;22.88;67.48
67052;BME280;53957;47.222;18.670;2023-08-31T15:07:09;99991.84;;;22.90;63.05
67052;BME280;53957;47.222;18.670;2023-08-31T15:10:12;99985.81;;;23.04;67.89
67052;BME280;53957;47.222;18.670;2023-08-31T15:13:15;99989.78;;;22.76;66.58
67052;BME280;53957;47.222;18.670;2023-08-31T15:16:18;99992.91;;;22.78;68.64
67052;BME280;53957;47.222;18.670;2023-08-31T15:19:21;99999.00;;;22.68;68.53
67052;BME280;53957;47.222;18.670;2023-08-31T15:22:25;99997.88;;;22.39;72.09
67052;BME280;53957;47.222;18.670;2023-08-31T15:25:28;99994.78;;;22.40;67.74
67052;BME280;53957;47.222;18.670;2023-08-31T15:28:31;99997.50;;;22.40;72.66
67052;BME280;53957;47.222;18.670;2023-08-31T15:31:54;99996.91;;;22.27;71.42
67052;BME280;53957;47.222;18.670;2023-08-31T15:34:57;100000.41;;;22.55;62.72
67052;BME280;53957;47.222;18.670;2023-08-31T15:38:00;100002.22;;;22.47;64.68
67052;BME280;53957;47.222;18.670;2023-08-31T15:41:05;100006.03;;;22.73;64.68
67052;BME280;53957;47.222;18.670;2023-08-31T15:44:09;100000.50;;;22.65;68.72
67052;BME280;53957;47.222;18.670;2023-08-31T15:47:12;99997.78;;;22.65;65.13
67052;BME280;53957;47.222;18.670;2023-08-31T15:50:16;99999.47;;;22.43;70.66
67052;BME280;53957;47.222;18.670;2023-08-31T15:53:19;100003.22;;;22.35;70.20
67052;BME280;53957;47.222;18.670;2023-08-31T15:56:22;100003.56;;;22.33;73.70
67052;BME280;53957;47.222;18.670;2023-08-31T15:59:25;100004.75;;;22.32;75.24
67052;BME280;53957;47.222;18.670;2023-08-31T16:02:28;100004.50;;;22.14;69.69
67052;BME280;53957;47.222;18.670;2023-08-31T16:05:32;100005.34;;;21.92;73.89
67052;BME280;53957;47.222;18.670;2023-08-31T16:08:35;100008.31;;;22.10;76.99
67052;BME280;53957;47.222;18.670;2023-08-31T16:11:39;100009.22;;;22.17;68.95
67052;BME280;53957;47.222;18.670;2023-08-31T16:14:48;100006.44;;;22.14;70.22
67052;BME280;53957;47.222;18.670;2023-08-31T16:17:54;100012.91;;;22.06;68.93
67052;BME280;53957;47.222;18.670;2023-08-31T16:21:00;100023.50;;;21.87;76.55
67052;BME280;53957;47.222;18.670;2023-08-31T16:24:04;100019.87;;;21.57;75.79
67052;BME280;53957;47.222;18.670;2023-08-31T16:27:07;100022.31;;;21.42;84.42
67052;BME280;53957;47.222;18.670;2023-08-31T16:30:11;100026.44;;;21.32;80.62
67052;BME280;53957;47.222;18.670;2023-08-31T16:33:15;100026.31;;;21.25;83.98
67052;BME280;53957;47.222;18.670;2023-08-31T16:36:19;100025.34;;;20.94;85.02
67052;BME280;53957;47.222;18.670;2023-08-31T16:39:23;100028.53;;;21.19;70.54
67052;BME280;53957;47.222;18.670;2023-08-31T16:42:26;100030.09;;;21.01;74.08
67052;BME280;53957;47.222;18.670;2023-08-31T16:45:29;100040.87;;;20.78;77.49
67052;BME280;53957;47.222;18.670;2023-08-31T16:48:32;100043.34;;;20.67;78.16
67052;BME280;53957;47.222;18.670;2023-08-31T16:51:36;100038.47;;;20.56;79.61
67052;BME280;53957;47.222;18.670;2023-08-31T16:54:44;100037.03;;;20.43;81.61
67052;BME280;53957;47.222;18.670;2023-08-31T16:57:52;100034.44;;;20.31;79.61
67052;BME280;53957;47.222;18.670;2023-08-31T17:01:18;100039.38;;;20.25;82.87
67052;BME280;53957;47.222;18.670;2023-08-31T17:04:21;100043.75;;;19.98;89.66
67052;BME280;53957;47.222;18.670;2023-08-31T17:07:34;100037.09;;;19.79;94.11
67052;BME280;53957;47.222;18.670;2023-08-31T17:10:38;100046.00;;;19.63;96.94
67052;BME280;53957;47.222;18.670;2023-08-31T17:13:48;100054.44;;;19.46;98.07
67052;BME280;53957;47.222;18.670;2023-08-31T17:17:09;100054.69;;;19.25;100.00
67052;BME280;53957;47.222;18.670;2023-08-31T17:20:24;100065.19;;;19.14;100.00
67052;BME280;53957;47.222;18.670;2023-08-31T17:23:49;100056.69;;;18.99;100.00
67052;BME280;53957;47.222;18.670;2023-08-31T17:26:52;100064.44;;;18.89;100.00
67052;BME280;53957;47.222;18.670;2023-08-31T17:29:55;100063.25;;;18.74;100.00
67052;BME280;53957;47.222;18.670;2023-08-31T17:32:59;100069.09;;;18.76;100.00
67052;BME280;53957;47.222;18.670;2023-08-31T17:36:02;100071.50;;;18.65;100.00
67052;BME280;53957;47.222;18.670;2023-08-31T17:39:05;100066.81;;;18.49;100.00
67052;BME280;53957;47.222;18.670;2023-08-31T17:42:08;100071.88;;;18.39;100.00
67052;BME280;53957;47.222;18.670;2023-08-31T17:45:12;100077.72;;;18.28;100.00
67052;BME280;53957;47.222;18.670;2023-08-31T17:48:24;100073.44;;;18.15;100.00
67052;BME280;53957;47.222;18.670;2023-08-31T17:51:33;100082.22;;;17.99;100.00
67052;BME280;53957;47.222;18.670;2023-08-31T17:54:59;100083.28;;;17.86;100.00
67052;BME280;53957;47.222;18.670;2023-08-31T17:58:36;100097.09;;;17.72;100.00
67052;BME280;53957;47.222;18.670;2023-08-31T18:02:21;100101.22;;;17.57;100.00
67052;BME280;53957;47.222;18.670;2023-08-31T18:06:06;100107.25;;;17.54;100.00
67052;BME280;53957;47.222;18.670;2023-08-31T18:09:32;100109.69;;;17.47;100.00
67052;BME280;53957;47.222;18.670;2023-08-31T18:13:05;100111.28;;;17.48;100.00
67052;BME280;53957;47.222;18.670;2023-08-31T18:16:58;100122.75;;;17.45;100.00
67052;BME280;53957;47.222;18.670;2023-08-31T18:20:03;100119.13;;;17.41;100.00
67052;BME280;53957;47.222;18.670;2023-08-31T18:23:46;100128.31;;;17.39;100.00
67052;BME280;53957;47.222;18.670;2023-08-31T18:26:52;100132.34;;;17.33;100.00
67052;BME280;53957;47.222;18.670;2023-08-31T18:33:42;100149.97;;;17.10;100.00
67052;BME280;53957;47.222;18.670;2023-08-31T18:36:46;100148.97;;;17.14;100.00
67052;BME280;53957;47.222;18.670;2023-08-31T18:39:50;100157.53;;;17.16;100.00
67052;BME280;53957;47.222;18.670;2023-08-31T18:42:54;100167.16;;;16.96;100.00
67052;BME280;53957;47.222;18.670;2023-08-31T18:46:02;100165.47;;;16.83;100.00
67052;BME280;53957;47.222;18.670;2023-08-31T18:49:16;100172.44;;;16.84;100.00
67052;BME280;53957;47.222;18.670;2023-08-31T18:52:21;100163.81;;;16.69;100.00
67052;BME280;53957;47.222;18.670;2023-08-31T18:55:26;100170.50;;;16.63;100.00
67052;BME280;53957;47.222;18.670;2023-08-31T18:58:30;100173.34;;;16.58;100.00
67052;BME280;53957;47.222;18.670;2023-08-31T19:01:37;100177.09;;;16.74;100.00
67052;BME280;53957;47.222;18.670;2023-08-31T19:04:42;100181.44;;;16.58;100.00
67052;BME280;53957;47.222;18.670;2023-08-31T19:07:45;100178.75;;;16.58;100.00
67052;BME280;53957;47.222;18.670;2023-08-31T19:10:49;100185.56;;;16.55;100.00
67052;BME280;53957;47.222;18.670;2023-08-31T19:13:53;100188.59;;;16.54;100.00
67052;BME280;53957;47.222;18.670;2023-08-31T19:16:57;100186.88;;;16.49;100.00
67052;BME280;53957;47.222;18.670;2023-08-31T19:20:02;100187.56;;;16.37;100.00
67052;BME280;53957;47.222;18.670;2023-08-31T19:23:09;100188.84;;;16.31;100.00
67052;BME280;53957;47.222;18.670;2023-08-31T19:26:13;100187.84;;;16.36;100.00
67052;BME280;53957;47.222;18.670;2023-08-31T19:29:23;100184.88;;;16.37;100.00
67052;BME280;53957;47.222;18.670;2023-08-31T19:32:28;100194.53;;;16.30;100.00
67052;BME280;53957;47.222;18.670;2023-08-31T19:35:32;100190.00;;;16.13;100.00
67052;BME280;53957;47.222;18.670;2023-08-31T19:38:38;100195.22;;;16.18;100.00
67052;BME280;53957;47.222;18.670;2023-08-31T19:41:42;100192.84;;;16.07;100.00
67052;BME280;53957;47.222;18.670;2023-08-31T19:44:45;100198.56;;;15.97;100.00
67052;BME280;53957;47.222;18.670;2023-08-31T19:47:49;100195.41;;;16.04;100.00
67052;BME280;53957;47.222;18.670;2023-08-31T19:51:03;100199.22;;;15.94;100.00
67052;BME280;53957;47.222;18.670;2023-08-31T19:54:07;100200.91;;;16.07;100.00
67052;BME280;53957;47.222;18.670;2023-08-31T19:57:11;100205.50;;;16.16;100.00
67052;BME280;53957;47.222;18.670;2023-08-31T20:00:16;100195.97;;;16.27;100.00
67052;BME280;53957;47.222;18.670;2023-08-31T20:03:21;100204.81;;;16.36;100.00
67052;BME280;53957;47.222;18.670;2023-08-31T20:06:24;100200.56;;;16.26;100.00
67052;BME280;53957;47.222;18.670;2023-08-31T20:09:28;100199.78;;;16.17;100.00
67052;BME280;53957;47.222;18.670;2023-08-31T20:12:31;100199.00;;;16.17;100.00
67052;BME280;53957;47.222;18.670;2023-08-31T20:15:36;100195.22;;;16.09;100.00
67052;BME280;53957;47.222;18.670;2023-08-31T20:18:39;100202.66;;;16.03;100.00
67052;BME280;53957;47.222;18.670;2023-08-31T20:21:43;100207.75;;;15.87;100.00
67052;BME280;53957;47.222;18.670;2023-08-31T20:24:48;100204.28;;;15.78;100.00
67052;BME280;53957;47.222;18.670;2023-08-31T20:27:51;100209.66;;;15.69;100.00
67052;BME280;53957;47.222;18.670;2023-08-31T20:30:56;100205.06;;;15.78;100.00
67052;BME280;53957;47.222;18.670;2023-08-31T20:34:01;100209.00;;;15.72;100.00
67052;BME280;53957;47.222;18.670;2023-08-31T20:37:06;100215.47;;;15.80;100.00
67052;BME280;53957;47.222;18.670;2023-08-31T20:40:11;100212.97;;;15.75;100.00
67052;BME280;53957;47.222;18.670;2023-08-31T20:43:14;100213.91;;;15.79;100.00
67052;BME280;53957;47.222;18.670;2023-08-31T20:46:17;100209.19;;;15.85;100.00
67052;BME280;53957;47.222;18.670;2023-08-31T20:49:21;100212.63;;;15.76;100.00
67052;BME280;53957;47.222;18.670;2023-08-31T20:52:25;100225.31;;;15.76;100.00
67052;BME280;53957;47.222;18.670;2023-08-31T20:55:28;100222.28;;;15.77;100.00
67052;BME280;53957;47.222;18.670;2023-08-31T20:58:33;100226.59;;;15.87;100.00
67052;BME280;53957;47.222;18.670;2023-08-31T21:01:36;100227.56;;;15.91;100.00
67052;BME280;53957;47.222;18.670;2023-08-31T21:04:39;100237.16;;;16.01;100.00
67052;BME280;53957;47.222;18.670;2023-08-31T21:07:42;100243.03;;;16.03;100.00
67052;BME280;53957;47.222;18.670;2023-08-31T21:10:45;100240.97;;;16.09;100.00
67052;BME280;53957;47.222;18.670;2023-08-31T21:13:48;100247.63;;;15.94;100.00